Flight Track Log - Related Links

Times and Time Zones

All times are in EDT time to prevent confusion due to time zone crossing. See the N629KA flight status page for this flight to view local times or setup timezone preferences in your user account.

Time Position Orientation Groundspeed Altitude Reporting Facility
EDT Latitude Longitude Course Direction KTS MPH feet Rate Location/Type
Tue 05:17:42 PM 40.4419 -75.9469 27° Northeast 173 199 25,000  Level New York Center
Tue 05:18:42 PM 40.5000 -75.9542 355° North 270 311 25,000  Level New York Center
Tue 05:19:40 PM 40.5411 -75.9625 351° North 217 250 25,000 -7,513 Level New York Center
Tue 05:20:41 PM 40.5908 -75.9692 354° North 266 306 10,100 -4,286 Descending New York Center
Tue 05:21:00 PM 40.6680 -75.9940 14° North  Level FlightAware Approximate
Tue 05:22:00 PM 40.7262 -75.9659 27° Northeast  Level FlightAware Approximate
Tue 05:22:42 PM 40.7006 -75.9883 352° North 199 229 12,000  Level New York Center
Tue 05:24:40 PM 40.8183 -75.9617 10° North 213 245 14,000 1,004 Climbing New York Center
Tue 05:26:41 PM 40.9458 -75.9522 North 213 245 16,000 747 Climbing New York Center
Tue 05:28:41 PM 41.0675 -75.9367 North 220 253 17,000 331 Climbing New York Center
Tue 05:29:42 PM 41.1378 -75.9008 21° North 237 273 17,000  Level New York Center
Tue 05:30:40 PM 41.2019 -75.8614 25° Northeast 242 278 17,000  Level New York Center
Tue 05:31:41 PM 41.2683 -75.8194 25° Northeast 256 295 17,000  Level New York Center
Tue 05:32:42 PM 41.3347 -75.7775 25° Northeast 256 295 17,000 202 Level New York Center
Tue 05:33:40 PM 41.3989 -75.7381 25° Northeast 256 295 17,400 1,008 Climbing New York Center
Tue 05:34:41 PM 41.4500 -75.7058 25° Northeast 243 280 19,000 793 Climbing New York Center
Tue 05:35:41 PM 41.5081 -75.6658 27° Northeast 219 252 19,000 3,000 Level New York Center
Tue 05:36:41 PM 41.5658 -75.6286 26° Northeast 219 252 25,000 1,587 Climbing New York Center
Tue 05:37:42 PM 41.6128 -75.6014 23° Northeast 269 310 22,200 -992 Descending New York Center
Tue 05:38:42 PM 41.6639 -75.5689 25° Northeast 237 273 23,000 316 Climbing New York Center
Tue 05:40:14 PM 41.7606 -75.5100 24° Northeast 235 270 23,000  Level Boston Center
Tue 05:41:14 PM 41.8283 -75.4658 26° Northeast 249 287 23,000  Level Boston Center
Tue 05:42:14 PM 41.8922 -75.4244 26° Northeast 254 292 23,000  Level Boston Center
Tue 05:43:14 PM 41.9619 -75.3831 24° Northeast 260 299 23,000  Level Boston Center
Tue 05:44:14 PM 42.0258 -75.3328 30° Northeast 260 299 23,000  Level Boston Center
Tue 05:45:14 PM 42.0717 -75.2511 53° Northeast 260 299 23,000  Level Boston Center
Tue 05:46:14 PM 42.0908 -75.1539 75° East 255 293 23,000  Level Boston Center
Tue 05:47:14 PM 42.1056 -75.0567 78° East 255 293 23,000  Level Boston Center
Tue 05:48:26 PM 42.1250 -74.9314 78° East 260 299 23,000  Level Boston Center
Tue 05:49:26 PM 42.1397 -74.8339 78° East 266 306 23,000  Level Boston Center
Tue 05:50:26 PM 42.1561 -74.7367 77° East 276 318 23,000  Level Boston Center
Tue 05:51:26 PM 42.1728 -74.6308 78° East 276 318 23,000  Level Boston Center
Tue 05:52:26 PM 42.1872 -74.5306 79° East 276 318 23,000  Level Boston Center
Tue 05:53:26 PM 42.2017 -74.4328 79° East 276 318 23,000  Level Boston Center
Tue 05:54:26 PM 42.2200 -74.3353 76° East 271 312 23,000  Level Boston Center
Tue 05:55:26 PM 42.2339 -74.2458 78° East 271 312 23,000  Level Boston Center
Tue 05:56:26 PM 42.2500 -74.1397 78° East 271 312 23,000  Level Boston Center
Tue 05:57:26 PM 42.2639 -74.0503 78° East 271 312 23,000  Level Boston Center
Tue 05:58:26 PM 42.2800 -73.9414 79° East 271 312 23,000  Level Boston Center
Tue 05:59:26 PM 42.2936 -73.8492 79° East 277 319 23,000  Level Boston Center
Tue 06:00:26 PM 42.3094 -73.7428 79° East 277 319 23,000  Level Boston Center
Tue 06:01:26 PM 42.3253 -73.6447 78° East 277 319 23,000  Level Boston Center
Tue 06:02:38 PM 42.3386 -73.5522 79° East 271 312 23,000  Level Boston Center
Tue 06:03:38 PM 42.3564 -73.4319 79° East 260 299 23,000 -500 Level Boston Center
Tue 06:04:38 PM 42.3719 -73.3253 79° East 271 312 22,000 -1,000 Descending Boston Center
Tue 06:05:38 PM 42.3853 -73.2186 80° East 276 318 21,000 -1,000 Descending Boston Center
Tue 06:06:38 PM 42.3983 -73.1261 79° East 271 312 20,000 -1,000 Descending Boston Center
Tue 06:07:38 PM 42.4114 -73.0250 80° East 271 312 19,000 -500 Descending Boston Center
Tue 06:08:38 PM 42.4286 -72.9239 77° East 260 299 19,000  Level Boston Center
Tue 06:09:38 PM 42.4436 -72.8228 79° East 260 299 19,000 -150 Level Boston Center
Tue 06:10:38 PM 42.4564 -72.7242 80° East 260 299 18,700 -600 Descending Boston Center
Tue 06:11:38 PM 42.4669 -72.6344 81° East 260 299 17,800 -900 Descending Boston Center
Tue 06:12:38 PM 42.4794 -72.5386 80° East 260 299 16,900 -1,000 Descending Boston Center
Tue 06:13:38 PM 42.4817 -72.4400 88° East 260 299 15,800 -1,100 Descending Boston Center
Tue 06:14:38 PM 42.4858 -72.3417 87° East 260 299 14,700 -1,250 Descending Boston Center
Tue 06:15:38 PM 42.4878 -72.2289 89° East 260 299 13,300 -1,250 Descending Boston Center
Tue 06:16:38 PM 42.4897 -72.1417 88° East 260 299 12,200 -1,200 Descending Boston Center
Tue 06:17:38 PM 42.4936 -72.0375 87° East 251 289 10,900 -1,200 Descending Boston Center
Tue 06:18:38 PM 42.4953 -71.9531 88° East 251 289 9,800 -1,350 Descending Boston Center
Tue 06:19:38 PM 42.4969 -71.8517 89° East 251 289 8,200 -1,550 Descending Boston Center
Tue 06:20:38 PM 42.5006 -71.7669 87° East 251 289 6,700 -1,650 Descending Boston Center
Tue 06:21:38 PM 42.5000 -71.6656 90° East 251 289 4,900 -1,600 Descending Boston Center
Tue 06:22:38 PM 42.4953 -71.5869 95° East 246 283 3,500 -1,431 Descending Boston Center
Tue 06:23:27 PM 42.4833 -71.5000 101° East 231 266 2,300 -843 Descending KA90
Tue 06:24:39 PM 42.4833 -71.4167 90° East 178 205 1,800 -412 Descending KA90
Tue 06:25:38 PM 42.4833 -71.3667 90° East 157 181 1,400 -550 Descending KA90
Tue 06:26:39 PM 42.4667 -71.3333 124° Southeast 105 121 700 1,533 Descending KA90
Tue 06:28:38 PM 42.4650 -71.2581 92° East 100 115 6,000 1,777 Climbing Boston Center
Tue 06:29:38 PM 42.4606 -71.2244 100° East 100 115 6,000  Level Boston Center
Tue 06:30:38 PM 42.4539 -71.1878 104° East 100 115 6,000  Level Boston Center
Tue 06:31:38 PM 42.4517 -71.1683 99° East 100 115 6,000  Level Boston Center
Tue 06:32:38 PM 42.4517 -71.1683 216° Southwest 100 115 6,000  Level Boston Center
Tue 06:34:00 PM 42.4667 -71.2839 280° West  Level FlightAware Approximate
Tue 06:41:00 PM 42.4667 -71.2833 281° West  Level FlightAware Approximate
Tue 06:42:00 PM 42.4699 -71.2890 281° West  Level Estimated
Tue 06:43:00 PM 42.4667 -71.2833 281° West  Level FlightAware Approximate

Login

Don't have an account? Register now (free) for customized features, flight alerts, and more!